Nhandeara, Brazil
Current Conditions -  °F | °C
As of 6:00 PM on Friday 21 Nov 2014 (Local Time) from SBSR Reporting Station
Clear Clear  
Wind Chill: 88°   Ceiling: Unl
Heat Index: 88°   Visibility: 6mi
Dew Point: 61°   Wind: 6mph
Humidity: 40%   Direction: 250°WSW
Pressure: 29.91"   Gusts: NA
Location:  20.69°S, 50.04°W
Report Text: SBSR 212000Z 25005KT CAVOK 31/16 Q1013
Loading
Personal Weather Stations






























Interactive Weather Map New forecast layout! Learn more

10-Day Weather Forecast

Advertisements
Track Severe Weather on mobile